createdAt,value
2018-03-06T00:00:54.034Z,13.45
2018-03-06T00:01:56.620Z,13.00
2018-03-06T00:02:59.165Z,12.63
2018-03-06T00:04:01.724Z,12.80
2018-03-06T00:05:04.277Z,13.23
2018-03-06T00:06:06.819Z,12.30
2018-03-06T00:07:09.361Z,12.70
2018-03-06T00:08:11.898Z,13.32
2018-03-06T00:09:14.450Z,12.85
2018-03-06T00:10:16.993Z,13.13
2018-03-06T00:11:19.551Z,13.82
2018-03-06T00:12:22.092Z,12.95
2018-03-06T00:13:24.648Z,13.32
2018-03-06T00:14:27.249Z,13.02
2018-03-06T00:15:29.772Z,13.80
2018-03-06T00:16:32.332Z,13.70
2018-03-06T00:17:34.884Z,13.32
2018-03-06T00:18:37.726Z,14.13
2018-03-06T00:19:40.268Z,13.70
2018-03-06T00:20:42.824Z,13.35
2018-03-06T00:21:45.373Z,14.35
2018-03-06T00:22:47.930Z,13.88
2018-03-06T00:23:50.473Z,14.65
2018-03-06T00:24:53.009Z,14.68
2018-03-06T00:25:55.588Z,13.30
2018-03-06T00:26:58.118Z,13.90
2018-03-06T00:28:00.658Z,14.50
2018-03-06T00:29:03.217Z,15.20
2018-03-06T00:30:05.772Z,15.35
2018-03-06T00:31:08.334Z,14.57
2018-03-06T00:32:10.886Z,15.95
2018-03-06T00:33:13.440Z,14.43
2018-03-06T00:34:15.958Z,15.57
2018-03-06T00:35:18.497Z,14.38
2018-03-06T00:36:21.046Z,14.60
2018-03-06T00:37:23.588Z,14.98
2018-03-06T00:38:26.135Z,14.25
2018-03-06T00:39:28.676Z,14.80
2018-03-06T00:40:31.229Z,14.43
2018-03-06T00:41:33.810Z,14.73
2018-03-06T00:42:36.342Z,14.93
2018-03-06T00:43:38.892Z,15.50
2018-03-06T00:44:41.435Z,15.13
2018-03-06T00:45:43.988Z,15.60
2018-03-06T00:46:46.543Z,14.15
2018-03-06T00:47:49.083Z,14.05
2018-03-06T00:48:51.640Z,15.27
2018-03-06T00:49:54.199Z,14.75
2018-03-06T00:50:56.767Z,15.60
2018-03-06T00:51:59.326Z,15.30
2018-03-06T00:53:01.848Z,14.50
2018-03-06T00:54:04.405Z,14.45
2018-03-06T00:55:06.959Z,15.57
2018-03-06T00:56:09.522Z,14.63
2018-03-06T00:57:12.066Z,14.95
2018-03-06T00:58:14.613Z,15.80
2018-03-06T00:59:17.166Z,16.35
2018-03-06T01:00:19.710Z,15.63
2018-03-06T01:01:22.282Z,14.82
2018-03-06T01:02:24.869Z,15.07
2018-03-06T01:03:27.392Z,15.07
2018-03-06T01:04:29.922Z,14.30
2018-03-06T01:05:32.476Z,15.63
2018-03-06T01:06:35.043Z,16.60
2018-03-06T01:07:37.588Z,15.52
2018-03-06T01:08:40.132Z,15.77
2018-03-06T01:09:42.684Z,16.05
2018-03-06T01:10:45.220Z,14.63
2018-03-06T01:11:47.796Z,16.67
2018-03-06T01:12:50.351Z,15.65
2018-03-06T01:13:52.900Z,14.52
2018-03-06T01:14:55.445Z,16.17
2018-03-06T01:15:57.995Z,16.12
2018-03-06T01:17:00.560Z,15.93
2018-03-06T01:18:03.107Z,15.52
2018-03-06T01:19:05.663Z,15.60
2018-03-06T01:20:08.217Z,16.45
2018-03-06T01:21:10.800Z,15.07
2018-03-06T01:22:13.372Z,16.67
2018-03-06T01:23:15.930Z,15.30
2018-03-06T01:24:18.479Z,15.88
2018-03-06T01:25:21.019Z,17.60
2018-03-06T01:26:23.568Z,17.12
2018-03-06T01:27:26.119Z,16.42
2018-03-06T01:28:28.662Z,17.27
2018-03-06T01:29:31.211Z,16.60
2018-03-06T01:30:33.752Z,16.75
2018-03-06T01:31:36.303Z,17.10
2018-03-06T01:32:38.864Z,16.48
2018-03-06T01:33:41.411Z,16.37
2018-03-06T01:34:43.952Z,16.35
2018-03-06T01:35:46.494Z,17.42
2018-03-06T01:36:49.021Z,16.02
2018-03-06T01:37:51.588Z,16.83
2018-03-06T01:38:54.125Z,16.87
2018-03-06T01:39:56.670Z,15.68
2018-03-06T01:40:59.194Z,17.70
2018-03-06T01:42:01.722Z,17.12
2018-03-06T01:43:04.324Z,16.98
2018-03-06T01:44:06.862Z,16.65
2018-03-06T01:45:09.389Z,16.80
2018-03-06T01:46:11.921Z,16.95
2018-03-06T01:47:14.483Z,16.25
2018-03-06T01:48:17.145Z,16.92
2018-03-06T01:49:19.716Z,16.70
2018-03-06T01:50:22.262Z,17.35
2018-03-06T01:51:24.811Z,16.50
2018-03-06T01:52:27.351Z,16.73
2018-03-06T01:53:29.924Z,16.23
2018-03-06T01:54:32.466Z,17.67
2018-03-06T01:55:35.002Z,17.27
2018-03-06T01:56:37.530Z,17.90
2018-03-06T01:57:40.058Z,16.50
2018-03-06T01:58:42.618Z,16.42
2018-03-06T01:59:45.160Z,16.98
2018-03-06T02:00:47.712Z,16.85
2018-03-06T02:01:50.247Z,17.95
2018-03-06T02:02:52.916Z,17.42
2018-03-06T02:03:55.440Z,16.45
2018-03-06T02:04:57.980Z,17.48
2018-03-06T02:06:00.528Z,18.95
2018-03-06T02:07:03.086Z,18.75
2018-03-06T02:08:05.622Z,17.87
2018-03-06T02:09:08.178Z,17.35
2018-03-06T02:10:10.704Z,18.17
2018-03-06T02:11:13.255Z,17.52
2018-03-06T02:12:15.804Z,17.17
2018-03-06T02:13:18.337Z,18.30
2018-03-06T02:14:20.870Z,18.00
2018-03-06T02:15:23.416Z,18.17
2018-03-06T02:16:25.969Z,17.83
2018-03-06T02:17:28.516Z,18.75
2018-03-06T02:18:31.062Z,19.35
2018-03-06T02:19:33.620Z,18.92
2018-03-06T02:20:36.152Z,17.83
2018-03-06T02:21:38.684Z,16.12
2018-03-06T02:22:41.209Z,17.33
2018-03-06T02:23:43.744Z,17.73
2018-03-06T02:24:46.361Z,17.50
2018-03-06T02:25:48.960Z,17.87
2018-03-06T02:26:51.507Z,16.00
2018-03-06T02:27:54.046Z,17.15
2018-03-06T02:28:56.596Z,17.17
2018-03-06T02:29:59.134Z,16.55
2018-03-06T02:31:01.684Z,17.10
2018-03-06T02:32:04.259Z,16.45
2018-03-06T02:33:06.794Z,17.65
2018-03-06T02:34:09.322Z,19.17
2018-03-06T02:35:11.868Z,17.17
2018-03-06T02:36:14.398Z,17.55
2018-03-06T02:37:16.933Z,18.77
2018-03-06T02:38:19.496Z,17.52
2018-03-06T02:39:22.049Z,18.40
2018-03-06T02:40:24.593Z,19.65
2018-03-06T02:41:27.181Z,18.77
2018-03-06T02:42:29.714Z,18.02
2018-03-06T02:43:32.256Z,16.92
2018-03-06T02:44:34.804Z,19.10
2018-03-06T02:45:37.355Z,17.62
2018-03-06T02:46:39.897Z,17.23
2018-03-06T02:47:42.439Z,17.65
2018-03-06T02:48:44.969Z,17.40
2018-03-06T02:49:47.531Z,18.12
2018-03-06T02:50:50.080Z,18.10
2018-03-06T02:51:52.624Z,17.67
2018-03-06T02:52:55.365Z,17.95
2018-03-06T02:53:57.918Z,17.67
2018-03-06T02:55:00.438Z,18.55
2018-03-06T02:56:02.987Z,17.12
2018-03-06T02:57:05.537Z,18.67
2018-03-06T02:58:08.088Z,18.58
2018-03-06T02:59:10.643Z,18.62
2018-03-06T03:00:13.212Z,19.75
2018-03-06T03:01:15.757Z,18.37
2018-03-06T03:02:18.320Z,17.62
2018-03-06T03:03:20.875Z,16.58
2018-03-06T03:04:23.416Z,19.10
2018-03-06T03:05:25.968Z,18.52
2018-03-06T03:06:28.510Z,18.05
2018-03-06T03:07:31.068Z,17.60
2018-03-06T03:08:33.603Z,18.05
2018-03-06T03:09:36.152Z,17.12
2018-03-06T03:10:38.688Z,18.02
2018-03-06T03:11:41.225Z,18.25
2018-03-06T03:12:43.758Z,16.70
2018-03-06T03:13:46.304Z,18.80
2018-03-06T03:14:48.860Z,16.25
2018-03-06T03:15:51.424Z,17.90
2018-03-06T03:16:53.979Z,17.40
2018-03-06T03:17:56.539Z,17.02
2018-03-06T03:18:59.080Z,19.05
2018-03-06T03:20:01.676Z,17.60
2018-03-06T03:21:04.182Z,18.45
2018-03-06T03:22:06.723Z,17.77
2018-03-06T03:23:09.269Z,17.75
2018-03-06T03:24:11.825Z,18.17
2018-03-06T03:25:14.383Z,18.60
2018-03-06T03:26:16.941Z,17.65
2018-03-06T03:27:19.486Z,18.83
2018-03-06T03:28:22.070Z,18.23
2018-03-06T03:29:24.621Z,17.55
2018-03-06T03:30:27.195Z,20.20
2018-03-06T03:31:29.734Z,17.90
2018-03-06T03:32:32.289Z,19.05
2018-03-06T03:33:34.844Z,18.52
2018-03-06T03:34:37.378Z,19.25
2018-03-06T03:35:39.937Z,18.25
2018-03-06T03:36:42.515Z,18.75
2018-03-06T03:37:45.070Z,20.45
2018-03-06T03:38:47.674Z,19.30
2018-03-06T03:39:50.216Z,18.52
2018-03-06T03:40:52.803Z,18.00
2018-03-06T03:41:55.345Z,19.02
2018-03-06T03:42:57.894Z,16.77
2018-03-06T03:44:00.448Z,17.62
2018-03-06T03:45:03.005Z,18.83
2018-03-06T03:46:05.564Z,19.12
2018-03-06T03:47:08.518Z,19.08
2018-03-06T03:48:11.071Z,19.90
2018-03-06T03:49:13.610Z,19.65
2018-03-06T03:50:16.138Z,19.33
2018-03-06T03:51:18.685Z,18.75
2018-03-06T03:52:21.218Z,18.40
2018-03-06T03:53:23.775Z,17.92
2018-03-06T03:54:26.351Z,18.55
2018-03-06T03:55:28.901Z,18.10
2018-03-06T03:56:31.434Z,18.85
2018-03-06T03:57:33.982Z,19.10
2018-03-06T03:58:36.519Z,19.05
2018-03-06T03:59:39.063Z,19.73
2018-03-06T04:00:41.600Z,17.70
2018-03-06T04:01:44.153Z,18.50
2018-03-06T04:02:46.709Z,18.87
2018-03-06T04:03:49.247Z,19.10
2018-03-06T04:04:51.824Z,20.27
2018-03-06T04:05:54.379Z,18.85
2018-03-06T04:06:56.923Z,19.55
2018-03-06T04:07:59.479Z,18.45
2018-03-06T04:09:02.007Z,19.58
2018-03-06T04:10:04.543Z,20.10
2018-03-06T04:11:07.077Z,18.30
2018-03-06T04:12:09.614Z,19.30
2018-03-06T04:13:12.141Z,19.50
2018-03-06T04:14:14.683Z,20.52
2018-03-06T04:15:17.252Z,19.48
2018-03-06T04:16:19.825Z,18.77
2018-03-06T04:17:22.361Z,19.80
2018-03-06T04:18:24.910Z,19.20
2018-03-06T04:19:27.450Z,18.98
2018-03-06T04:20:29.984Z,20.55
2018-03-06T04:21:32.554Z,19.45
2018-03-06T04:22:35.101Z,19.85
2018-03-06T04:23:37.631Z,18.98
2018-03-06T04:24:40.184Z,19.90
2018-03-06T04:25:42.721Z,19.83
2018-03-06T04:26:45.293Z,19.73
2018-03-06T04:27:47.840Z,19.40
2018-03-06T04:28:50.384Z,18.30
2018-03-06T04:29:52.926Z,19.87
2018-03-06T04:30:55.479Z,18.77
2018-03-06T04:31:58.051Z,19.27
2018-03-06T04:33:00.600Z,19.42
2018-03-06T04:34:03.146Z,17.98
2018-03-06T04:35:05.688Z,19.23
2018-03-06T04:36:08.227Z,19.40
2018-03-06T04:37:10.799Z,20.92
2018-03-06T04:38:13.350Z,21.35
2018-03-06T04:39:15.882Z,18.15
2018-03-06T04:40:18.445Z,20.73
2018-03-06T04:41:20.986Z,18.75
2018-03-06T04:42:23.533Z,18.65
2018-03-06T04:43:26.217Z,19.40
2018-03-06T04:44:28.763Z,20.50
2018-03-06T04:45:31.317Z,18.52
2018-03-06T04:46:33.857Z,19.00
2018-03-06T04:47:36.393Z,18.85
2018-03-06T04:48:38.924Z,19.00
2018-03-06T04:49:41.468Z,20.40
2018-03-06T04:50:44.028Z,21.77
2018-03-06T04:51:46.551Z,20.67
2018-03-06T04:52:49.100Z,18.83
2018-03-06T04:53:51.643Z,19.42
2018-03-06T04:54:54.204Z,19.87
2018-03-06T04:55:56.753Z,18.62
2018-03-06T04:56:59.308Z,22.17
2018-03-06T04:58:01.856Z,19.73
2018-03-06T04:59:04.394Z,20.15
2018-03-06T05:00:06.930Z,20.75
2018-03-06T05:01:09.476Z,20.83
2018-03-06T05:02:12.019Z,21.95
2018-03-06T05:03:14.573Z,20.35
2018-03-06T05:04:17.121Z,20.05
2018-03-06T05:05:19.672Z,20.67
2018-03-06T05:06:22.218Z,19.67
2018-03-06T05:07:24.737Z,20.83
2018-03-06T05:08:27.273Z,21.55
2018-03-06T05:09:29.806Z,20.10
2018-03-06T05:10:32.356Z,21.30
2018-03-06T05:11:34.900Z,21.80
2018-03-06T05:12:37.459Z,20.30
2018-03-06T05:13:40.008Z,20.48
2018-03-06T05:14:42.568Z,21.65
2018-03-06T05:15:45.102Z,21.40
2018-03-06T05:16:47.626Z,21.30
2018-03-06T05:17:50.157Z,21.95
2018-03-06T05:18:52.726Z,20.12
2018-03-06T05:19:55.267Z,21.08
2018-03-06T05:20:57.801Z,20.12
2018-03-06T05:22:00.347Z,21.73
2018-03-06T05:23:02.924Z,21.20
2018-03-06T05:24:05.462Z,22.73
2018-03-06T05:25:07.998Z,21.70
2018-03-06T05:26:10.530Z,21.02
2018-03-06T05:27:13.049Z,21.92
2018-03-06T05:28:15.607Z,22.52
2018-03-06T05:29:18.180Z,21.48
2018-03-06T05:30:20.719Z,21.48
2018-03-06T05:31:23.278Z,22.00
2018-03-06T05:32:25.840Z,21.67
2018-03-06T05:33:28.399Z,20.20
2018-03-06T05:34:30.935Z,23.10
2018-03-06T05:35:33.480Z,22.80
2018-03-06T05:36:36.017Z,22.75
2018-03-06T05:37:39.396Z,21.67
2018-03-06T05:38:50.537Z,21.62
2018-03-06T05:39:53.083Z,22.30
2018-03-06T05:40:55.628Z,21.08
2018-03-06T05:41:58.190Z,22.10
2018-03-06T05:43:00.740Z,24.65
2018-03-06T05:44:03.996Z,23.02
2018-03-06T05:45:06.542Z,24.40
2018-03-06T05:46:09.077Z,21.58
2018-03-06T05:47:11.636Z,24.45
2018-03-06T05:48:14.171Z,22.13
2018-03-06T05:49:16.727Z,22.83
2018-03-06T05:50:19.493Z,22.95
2018-03-06T05:51:22.692Z,22.95
2018-03-06T05:52:25.582Z,24.20
2018-03-06T05:53:28.271Z,22.67
2018-03-06T05:54:31.669Z,23.85
2018-03-06T05:55:34.395Z,22.55
2018-03-06T05:56:37.877Z,21.80
2018-03-06T05:57:40.553Z,23.38
2018-03-06T05:58:43.612Z,24.23
2018-03-06T05:59:46.153Z,22.58
2018-03-06T06:00:48.695Z,23.25
2018-03-06T06:01:51.238Z,23.35
2018-03-06T06:02:53.788Z,23.35
2018-03-06T06:03:56.328Z,22.60
2018-03-06T06:04:58.870Z,24.10
2018-03-06T06:06:01.419Z,24.10
2018-03-06T06:07:03.972Z,25.35
2018-03-06T06:08:06.503Z,24.83
2018-03-06T06:09:09.045Z,22.80
2018-03-06T06:10:11.578Z,23.85
2018-03-06T06:11:14.110Z,23.90
2018-03-06T06:12:16.655Z,23.60
2018-03-06T06:13:19.209Z,24.15
2018-03-06T06:14:21.752Z,25.20
2018-03-06T06:15:29.638Z,23.58
2018-03-06T06:16:32.184Z,24.05
2018-03-06T06:17:34.751Z,23.38
2018-03-06T06:18:38.047Z,24.33
2018-03-06T06:19:40.578Z,23.55
2018-03-06T06:20:43.097Z,23.70
2018-03-06T06:21:49.844Z,21.80
2018-03-06T06:22:52.776Z,22.52
2018-03-06T06:23:55.827Z,24.52
2018-03-06T06:24:58.418Z,25.37
2018-03-06T06:26:01.065Z,23.08
2018-03-06T06:27:03.703Z,24.55
2018-03-06T06:28:06.375Z,23.80
2018-03-06T06:29:08.965Z,26.02
2018-03-06T06:30:11.493Z,23.60
2018-03-06T06:31:14.016Z,24.52
2018-03-06T06:32:16.557Z,22.25
2018-03-06T06:33:19.100Z,24.20
2018-03-06T06:34:21.753Z,23.52
2018-03-06T06:35:24.376Z,24.12
2018-03-06T06:36:26.927Z,24.45
2018-03-06T06:37:29.456Z,23.95
2018-03-06T06:38:31.964Z,23.38
2018-03-06T06:39:34.520Z,24.35
2018-03-06T06:40:37.044Z,23.40
2018-03-06T06:41:39.558Z,24.60
2018-03-06T06:42:42.132Z,24.17
2018-03-06T06:43:44.649Z,24.10
2018-03-06T06:44:47.194Z,24.70
2018-03-06T06:45:49.734Z,23.62
2018-03-06T06:46:52.306Z,24.12
2018-03-06T06:47:54.811Z,23.67
2018-03-06T06:48:57.353Z,26.58
2018-03-06T06:49:59.891Z,23.87
2018-03-06T06:51:02.505Z,24.40
2018-03-06T06:52:05.048Z,24.20
2018-03-06T06:53:07.562Z,25.37
2018-03-06T06:54:10.088Z,25.40
2018-03-06T06:55:12.646Z,24.00
2018-03-06T06:56:15.179Z,25.92
2018-03-06T06:57:17.717Z,25.25
2018-03-06T06:58:20.241Z,25.40
2018-03-06T06:59:22.763Z,24.77
2018-03-06T07:00:25.284Z,23.60
2018-03-06T07:01:27.804Z,23.52
2018-03-06T07:02:30.361Z,24.83
2018-03-06T07:03:32.882Z,25.70
2018-03-06T07:04:35.482Z,24.25
2018-03-06T07:05:38.286Z,26.12
2018-03-06T07:06:40.853Z,24.83
2018-03-06T07:07:43.362Z,26.40
2018-03-06T07:08:45.882Z,24.40
2018-03-06T07:09:48.422Z,24.67
2018-03-06T07:10:50.930Z,26.23
2018-03-06T07:11:53.449Z,23.70
2018-03-06T07:12:55.976Z,26.17
2018-03-06T07:13:58.485Z,23.90
2018-03-06T07:15:01.034Z,25.58
2018-03-06T07:16:03.606Z,24.75
2018-03-06T07:17:06.121Z,26.02
2018-03-06T07:18:08.754Z,25.33
2018-03-06T07:19:11.335Z,25.10
2018-03-06T07:20:13.866Z,25.35
2018-03-06T07:21:16.520Z,25.12
2018-03-06T07:22:19.016Z,25.12
2018-03-06T07:23:21.543Z,27.08
2018-03-06T07:24:24.058Z,26.10
2018-03-06T07:25:26.568Z,26.12
2018-03-06T07:26:29.143Z,25.02
2018-03-06T07:27:31.632Z,24.73
2018-03-06T07:28:34.156Z,25.05
2018-03-06T07:29:36.681Z,26.00
2018-03-06T07:30:39.204Z,25.90
2018-03-06T07:31:41.713Z,25.85
2018-03-06T07:32:44.235Z,25.83
2018-03-06T07:33:46.772Z,25.12
2018-03-06T07:34:49.304Z,25.10
2018-03-06T07:35:51.811Z,27.37
2018-03-06T07:36:54.464Z,23.40
2018-03-06T07:37:57.346Z,26.45
2018-03-06T07:38:59.891Z,26.42
2018-03-06T07:40:02.562Z,26.62
2018-03-06T07:41:05.228Z,26.90
2018-03-06T07:42:07.910Z,24.98
2018-03-06T07:43:10.559Z,24.67
2018-03-06T07:44:13.082Z,23.87
2018-03-06T07:45:15.735Z,25.17
2018-03-06T07:46:18.402Z,26.42
2018-03-06T07:47:21.135Z,25.62
2018-03-06T07:48:28.084Z,25.92
2018-03-06T07:49:30.956Z,25.88
2018-03-06T07:50:33.540Z,26.05
2018-03-06T07:51:36.084Z,24.77
2018-03-06T07:52:38.683Z,25.27
2018-03-06T07:53:41.202Z,24.95
2018-03-06T07:54:43.727Z,26.35
2018-03-06T07:55:46.361Z,25.92
2018-03-06T07:56:48.990Z,26.80
2018-03-06T07:57:51.590Z,27.08
2018-03-06T07:58:54.354Z,26.17
2018-03-06T07:59:56.873Z,27.05
2018-03-06T08:00:59.563Z,24.98
2018-03-06T08:02:02.227Z,25.88
2018-03-06T08:03:04.745Z,24.95
2018-03-06T08:04:07.262Z,27.13
2018-03-06T08:05:09.800Z,25.40
2018-03-06T08:06:12.330Z,25.30
2018-03-06T08:07:14.919Z,25.88
2018-03-06T08:08:17.462Z,26.45
2018-03-06T08:09:20.010Z,25.17
2018-03-06T08:10:22.526Z,25.40
2018-03-06T08:11:25.052Z,28.20
2018-03-06T08:12:27.642Z,28.38
2018-03-06T08:13:30.218Z,26.52
2018-03-06T08:14:32.744Z,26.70
2018-03-06T08:15:35.529Z,24.60
2018-03-06T08:16:38.095Z,25.80
2018-03-06T08:17:40.631Z,27.40
2018-03-06T08:18:43.164Z,27.20
2018-03-06T08:19:45.756Z,26.30
2018-03-06T08:20:48.418Z,27.10
2018-03-06T08:21:51.030Z,27.83
2018-03-06T08:22:53.562Z,26.08
2018-03-06T08:23:56.138Z,24.92
2018-03-06T08:24:58.648Z,27.42
2018-03-06T08:26:01.163Z,26.30
2018-03-06T08:27:03.690Z,28.00
2018-03-06T08:28:06.217Z,27.23
2018-03-06T08:29:08.729Z,27.85
2018-03-06T08:30:11.237Z,27.02
2018-03-06T08:31:13.772Z,27.48
2018-03-06T08:32:16.626Z,28.02
2018-03-06T08:33:19.487Z,27.08
2018-03-06T08:34:22.071Z,28.80
2018-03-06T08:35:24.616Z,29.20
2018-03-06T08:36:27.592Z,28.40
2018-03-06T08:37:30.113Z,27.05
2018-03-06T08:38:32.663Z,26.98
2018-03-06T08:39:35.337Z,27.40
2018-03-06T08:40:38.048Z,24.40
2018-03-06T08:41:40.636Z,26.67
2018-03-06T08:42:43.776Z,26.40
2018-03-06T08:43:46.699Z,27.42
2018-03-06T08:44:49.452Z,26.60
2018-03-06T08:45:52.040Z,28.42
2018-03-06T08:46:54.583Z,24.83
2018-03-06T08:47:57.330Z,27.45
2018-03-06T08:48:59.883Z,28.15
2018-03-06T08:50:02.445Z,25.90
2018-03-06T08:51:04.987Z,26.83
2018-03-06T08:52:07.512Z,27.80
2018-03-06T08:53:10.127Z,27.80
2018-03-06T08:54:13.577Z,27.40
2018-03-06T08:55:16.967Z,29.50
2018-03-06T08:56:19.659Z,29.75
2018-03-06T08:57:22.230Z,28.02
2018-03-06T08:58:24.857Z,28.33
2018-03-06T08:59:28.196Z,29.05
2018-03-06T09:00:30.828Z,27.17
2018-03-06T09:01:33.649Z,29.02
2018-03-06T09:02:36.291Z,29.17
2018-03-06T09:03:38.864Z,31.25
2018-03-06T09:04:41.371Z,25.52
2018-03-06T09:05:43.887Z,29.27
2018-03-06T09:06:46.424Z,27.83
2018-03-06T09:07:49.003Z,28.80
2018-03-06T09:08:51.519Z,29.73
2018-03-06T09:09:54.055Z,28.70
2018-03-06T09:10:56.573Z,30.02
2018-03-06T09:11:59.095Z,28.50
2018-03-06T09:13:01.648Z,29.52
2018-03-06T09:14:04.186Z,29.37
2018-03-06T09:15:06.758Z,29.20
2018-03-06T09:16:09.277Z,27.02
2018-03-06T09:17:11.813Z,27.80
2018-03-06T09:18:14.331Z,27.65
2018-03-06T09:19:16.994Z,31.60
2018-03-06T09:20:19.523Z,28.35
2018-03-06T09:21:22.054Z,28.75
2018-03-06T09:22:24.570Z,28.65
2018-03-06T09:23:27.078Z,28.87
2018-03-06T09:24:29.665Z,27.08
2018-03-06T09:25:32.170Z,27.02
2018-03-06T09:26:34.718Z,28.62
2018-03-06T09:27:37.245Z,29.33
2018-03-06T09:28:39.768Z,29.33
2018-03-06T09:29:42.302Z,28.48
2018-03-06T09:30:44.926Z,28.90
2018-03-06T09:31:47.460Z,29.35
2018-03-06T09:32:49.990Z,27.77
2018-03-06T09:33:52.505Z,29.30
2018-03-06T09:34:55.052Z,29.23
2018-03-06T09:35:57.590Z,27.55
2018-03-06T09:37:00.116Z,28.48
2018-03-06T09:38:02.655Z,29.48
2018-03-06T09:39:05.185Z,29.90
2018-03-06T09:40:07.714Z,29.37
2018-03-06T09:41:10.255Z,29.23
2018-03-06T09:42:12.910Z,28.67
2018-03-06T09:43:15.435Z,30.48
2018-03-06T09:44:17.953Z,29.85
2018-03-06T09:45:20.486Z,31.62
2018-03-06T09:46:23.421Z,30.50
2018-03-06T09:47:25.953Z,29.92
2018-03-06T09:48:28.491Z,29.73
2018-03-06T09:49:31.016Z,27.52
2018-03-06T09:50:33.558Z,29.45
2018-03-06T09:51:36.077Z,28.85
2018-03-06T09:52:38.609Z,28.48
2018-03-06T09:53:41.149Z,27.13
2018-03-06T09:54:43.790Z,26.52
2018-03-06T09:55:46.334Z,26.35
2018-03-06T09:56:48.878Z,27.10
2018-03-06T09:57:51.395Z,26.98
2018-03-06T09:58:53.936Z,26.60
2018-03-06T09:59:56.465Z,26.33
2018-03-06T10:00:59.001Z,25.67
2018-03-06T10:02:01.620Z,27.67
2018-03-06T10:03:04.176Z,26.15
2018-03-06T10:04:06.884Z,27.35
2018-03-06T10:05:09.427Z,28.62
2018-03-06T10:06:11.963Z,25.35
2018-03-06T10:07:14.546Z,27.27
2018-03-06T10:08:17.073Z,27.25
2018-03-06T10:09:19.772Z,25.98
2018-03-06T10:10:22.333Z,26.40
2018-03-06T10:11:24.871Z,26.35
2018-03-06T10:12:27.391Z,26.58
2018-03-06T10:13:29.965Z,26.17
2018-03-06T10:14:32.492Z,25.80
2018-03-06T10:15:35.104Z,27.08
2018-03-06T10:16:37.767Z,26.92
2018-03-06T10:17:41.609Z,25.85
2018-03-06T10:18:44.129Z,27.35
2018-03-06T10:19:46.653Z,27.87
2018-03-06T10:20:49.221Z,25.40
2018-03-06T10:21:51.776Z,27.13
2018-03-06T10:22:54.335Z,27.15
2018-03-06T10:23:56.863Z,25.98
2018-03-06T10:24:59.518Z,25.05
2018-03-06T10:26:02.046Z,27.15
2018-03-06T10:27:04.603Z,26.33
2018-03-06T10:28:07.126Z,24.23
2018-03-06T10:29:09.654Z,24.30
2018-03-06T10:30:12.219Z,26.77
2018-03-06T10:31:14.763Z,25.58
2018-03-06T10:32:19.192Z,26.25
2018-03-06T10:33:22.614Z,25.15
2018-03-06T10:36:39.221Z,24.30
2018-03-06T10:37:48.163Z,24.87
2018-03-06T10:38:50.916Z,24.98
2018-03-06T10:39:54.457Z,24.70
2018-03-06T10:40:56.970Z,26.50
2018-03-06T10:41:59.494Z,26.33
2018-03-06T10:43:02.031Z,25.67
2018-03-06T10:44:04.545Z,25.27
2018-03-06T10:45:07.067Z,28.02
2018-03-06T10:46:09.628Z,26.55
2018-03-06T10:47:12.554Z,26.20
2018-03-06T10:48:15.084Z,27.20
2018-03-06T10:49:17.622Z,25.83
2018-03-06T10:50:20.156Z,26.90
2018-03-06T10:51:22.679Z,27.10
2018-03-06T10:52:25.194Z,23.70
2018-03-06T10:53:27.749Z,26.65
2018-03-06T10:54:30.285Z,27.40
2018-03-06T10:55:32.818Z,26.05
2018-03-06T10:56:35.349Z,23.75
2018-03-06T10:57:37.881Z,27.58
2018-03-06T10:58:40.394Z,25.67
2018-03-06T10:59:42.944Z,27.08
2018-03-06T11:00:48.160Z,25.50
2018-03-06T11:01:50.718Z,26.00
2018-03-06T11:02:53.258Z,27.37
2018-03-06T11:03:55.777Z,27.48
2018-03-06T11:04:58.294Z,26.65
2018-03-06T11:06:00.824Z,23.95
2018-03-06T11:07:03.338Z,24.90
2018-03-06T11:08:05.850Z,25.73
2018-03-06T11:09:08.366Z,25.85
2018-03-06T11:10:10.921Z,26.55
2018-03-06T11:11:13.448Z,25.90
2018-03-06T11:12:15.975Z,25.73
2018-03-06T11:13:18.506Z,27.27
2018-03-06T11:14:21.031Z,25.62
2018-03-06T11:15:23.572Z,25.05
2018-03-06T11:16:26.096Z,25.27
2018-03-06T11:17:28.680Z,25.90
2018-03-06T11:18:31.204Z,26.52
2018-03-06T11:19:33.722Z,25.37
2018-03-06T11:20:36.233Z,24.85
2018-03-06T11:21:38.858Z,25.25
2018-03-06T11:22:41.370Z,27.83
2018-03-06T11:23:43.918Z,26.70
2018-03-06T11:24:46.456Z,28.70
2018-03-06T11:25:48.986Z,28.60
2018-03-06T11:26:51.519Z,28.65
2018-03-06T11:27:54.082Z,25.70
2018-03-06T11:28:56.975Z,23.05
2018-03-06T11:29:59.677Z,24.60
2018-03-06T11:31:02.226Z,23.67
2018-03-06T11:32:04.864Z,24.02
2018-03-06T11:33:07.401Z,26.40
2018-03-06T11:34:09.959Z,23.87
2018-03-06T11:35:12.474Z,26.02
2018-03-06T11:36:15.114Z,25.37
2018-03-06T11:37:17.653Z,22.87
2018-03-06T11:38:20.169Z,24.52
2018-03-06T11:39:22.692Z,24.08
2018-03-06T11:40:25.210Z,22.98
2018-03-06T11:41:27.747Z,23.85
2018-03-06T11:42:30.353Z,23.80
2018-03-06T11:43:32.918Z,22.48
2018-03-06T11:44:35.453Z,23.65
2018-03-06T11:45:37.961Z,22.83
2018-03-06T11:46:40.496Z,21.67
2018-03-06T11:47:43.010Z,23.33
2018-03-06T11:48:45.536Z,21.35
2018-03-06T11:49:48.080Z,23.08
2018-03-06T11:50:50.598Z,23.27
2018-03-06T11:51:53.149Z,24.85
2018-03-06T11:52:55.662Z,23.35
2018-03-06T11:53:58.174Z,22.10
2018-03-06T11:55:00.705Z,21.55
2018-03-06T11:56:03.240Z,20.40
2018-03-06T11:57:05.789Z,21.70
2018-03-06T11:58:08.432Z,21.00
2018-03-06T11:59:11.012Z,22.05
2018-03-06T12:00:13.578Z,22.58
2018-03-06T12:01:16.135Z,23.77
2018-03-06T12:02:18.880Z,22.30
2018-03-06T12:03:21.427Z,22.58
2018-03-06T12:04:23.978Z,21.60
2018-03-06T12:05:26.507Z,21.40
2018-03-06T12:06:29.040Z,19.35
2018-03-06T12:07:31.563Z,22.00
2018-03-06T12:08:34.157Z,22.20
2018-03-06T12:09:36.688Z,22.60
2018-03-06T12:10:39.210Z,22.85
2018-03-06T12:11:41.730Z,21.50
2018-03-06T12:12:44.290Z,21.95
2018-03-06T12:13:46.831Z,20.45
2018-03-06T12:14:49.396Z,20.75
2018-03-06T12:15:51.914Z,22.73
2018-03-06T12:16:54.429Z,23.15
2018-03-06T12:17:57.002Z,21.87
2018-03-06T12:18:59.545Z,20.45
2018-03-06T12:20:02.111Z,22.33
2018-03-06T12:21:04.625Z,21.80
2018-03-06T12:22:07.152Z,22.85
2018-03-06T12:23:09.696Z,22.30
2018-03-06T12:24:12.236Z,22.27
2018-03-06T12:25:14.784Z,24.58
2018-03-06T12:26:17.325Z,22.00
2018-03-06T12:27:19.850Z,23.30
2018-03-06T12:28:22.374Z,23.58
2018-03-06T12:29:24.887Z,24.33
2018-03-06T12:30:27.419Z,31.98
2018-03-06T12:31:29.948Z,26.58
2018-03-06T12:32:32.473Z,23.17
2018-03-06T12:33:35.081Z,22.80
2018-03-06T12:34:37.604Z,21.85
2018-03-06T12:35:40.143Z,22.40
2018-03-06T12:36:42.657Z,23.73
2018-03-06T12:37:45.171Z,24.35
2018-03-06T12:38:47.704Z,25.65
2018-03-06T12:39:50.341Z,24.37
2018-03-06T12:40:52.887Z,25.95
2018-03-06T12:41:55.411Z,23.67
2018-03-06T12:42:58.018Z,23.92
2018-03-06T12:44:00.545Z,23.62
2018-03-06T12:45:03.075Z,23.27
2018-03-06T12:46:05.591Z,24.92
2018-03-06T12:48:16.953Z,23.65
2018-03-06T12:49:19.501Z,24.08
2018-03-06T12:50:24.101Z,24.10
2018-03-06T12:51:29.077Z,25.48
2018-03-06T12:52:32.009Z,25.58
2018-03-06T12:53:34.552Z,24.52
2018-03-06T12:54:37.084Z,22.87
2018-03-06T12:55:39.597Z,24.55
2018-03-06T12:56:42.124Z,22.67
2018-03-06T12:57:44.674Z,24.25
2018-03-06T12:58:48.977Z,23.60
2018-03-06T12:59:51.576Z,23.75
2018-03-06T13:00:54.176Z,24.23
2018-03-06T13:01:56.694Z,23.23
2018-03-06T13:02:59.252Z,26.35
2018-03-06T13:04:01.984Z,23.20
2018-03-06T13:05:04.696Z,25.62
2018-03-06T13:06:07.284Z,24.08
2018-03-06T13:07:09.838Z,23.92
2018-03-06T13:08:12.366Z,22.33
2018-03-06T13:09:14.924Z,22.23
2018-03-06T13:10:20.668Z,20.92
2018-03-06T13:11:24.137Z,21.52
2018-03-06T13:12:27.612Z,22.13
2018-03-06T13:13:31.572Z,21.50
2018-03-06T13:14:34.202Z,24.08
2018-03-06T13:15:36.714Z,22.77
2018-03-06T13:16:51.886Z,24.40
2018-03-06T13:17:55.577Z,23.77
2018-03-06T13:19:01.918Z,22.90
2018-03-06T13:20:12.213Z,23.42
2018-03-06T13:21:14.964Z,22.27
2018-03-06T13:22:22.046Z,23.17
2018-03-06T13:23:28.007Z,23.83
2018-03-06T13:24:30.553Z,23.75
2018-03-06T13:25:33.070Z,24.23
2018-03-06T13:26:35.600Z,24.65
2018-03-06T13:27:38.171Z,23.60
2018-03-06T13:28:40.724Z,24.10
2018-03-06T13:29:43.250Z,23.92
2018-03-06T13:30:45.815Z,23.70